sensor_id;sensor_type;location;lat;lon;timestamp;pressure;altitude;pressure_sealevel;temperature;humidity
82807;BME280;72563;44.816;20.484;2024-01-15T00:01:29;99642.03;;;7.25;52.38
82807;BME280;72563;44.816;20.484;2024-01-15T00:03:55;99658.25;;;7.43;52.27
82807;BME280;72563;44.816;20.484;2024-01-15T00:06:21;99662.94;;;7.43;52.54
82807;BME280;72563;44.816;20.484;2024-01-15T00:08:46;99663.44;;;7.45;52.15
82807;BME280;72563;44.816;20.484;2024-01-15T00:11:12;99629.38;;;7.07;52.55
82807;BME280;72563;44.816;20.484;2024-01-15T00:13:38;99649.84;;;7.40;52.14
82807;BME280;72563;44.816;20.484;2024-01-15T00:16:04;99650.22;;;7.47;52.60
82807;BME280;72563;44.816;20.484;2024-01-15T00:18:29;99655.38;;;7.48;52.26
82807;BME280;72563;44.816;20.484;2024-01-15T00:20:55;99645.69;;;7.42;52.30
82807;BME280;72563;44.816;20.484;2024-01-15T00:23:20;99645.81;;;7.37;52.80
82807;BME280;72563;44.816;20.484;2024-01-15T00:25:47;99647.28;;;7.43;52.44
82807;BME280;72563;44.816;20.484;2024-01-15T00:28:12;99643.28;;;7.49;52.27
82807;BME280;72563;44.816;20.484;2024-01-15T00:30:38;99643.38;;;7.67;52.21
82807;BME280;72563;44.816;20.484;2024-01-15T00:33:04;99648.03;;;7.66;52.19
82807;BME280;72563;44.816;20.484;2024-01-15T00:35:29;99646.94;;;7.67;51.80
82807;BME280;72563;44.816;20.484;2024-01-15T00:37:55;99645.47;;;7.70;51.88
82807;BME280;72563;44.816;20.484;2024-01-15T00:40:21;99636.47;;;7.69;52.06
82807;BME280;72563;44.816;20.484;2024-01-15T00:42:46;99641.63;;;7.71;52.04
82807;BME280;72563;44.816;20.484;2024-01-15T00:45:12;99641.13;;;7.69;52.30
82807;BME280;72563;44.816;20.484;2024-01-15T00:47:37;99627.94;;;7.71;51.75
82807;BME280;72563;44.816;20.484;2024-01-15T00:50:03;99627.81;;;7.84;51.73
82807;BME280;72563;44.816;20.484;2024-01-15T00:52:29;99628.44;;;7.81;51.57
82807;BME280;72563;44.816;20.484;2024-01-15T00:54:55;99628.63;;;7.85;51.56
82807;BME280;72563;44.816;20.484;2024-01-15T00:57:20;99625.03;;;7.67;52.17
82807;BME280;72563;44.816;20.484;2024-01-15T00:59:47;99612.94;;;7.68;52.12
82807;BME280;72563;44.816;20.484;2024-01-15T01:02:13;99608.66;;;7.45;52.69
82807;BME280;72563;44.816;20.484;2024-01-15T01:04:40;99617.91;;;7.66;52.61
82807;BME280;72563;44.816;20.484;2024-01-15T01:07:05;99618.97;;;7.87;51.54
82807;BME280;72563;44.816;20.484;2024-01-15T01:09:31;99607.19;;;7.87;51.89
82807;BME280;72563;44.816;20.484;2024-01-15T01:11:56;99613.69;;;8.08;51.55
82807;BME280;72563;44.816;20.484;2024-01-15T01:14:22;99593.69;;;7.99;51.19
82807;BME280;72563;44.816;20.484;2024-01-15T01:16:48;99609.69;;;8.14;51.34
82807;BME280;72563;44.816;20.484;2024-01-15T01:19:13;99603.38;;;8.13;51.09
82807;BME280;72563;44.816;20.484;2024-01-15T01:21:39;99597.38;;;7.94;51.39
82807;BME280;72563;44.816;20.484;2024-01-15T01:24:04;99606.59;;;8.07;51.33
82807;BME280;72563;44.816;20.484;2024-01-15T01:26:31;99599.81;;;8.13;51.19
82807;BME280;72563;44.816;20.484;2024-01-15T01:28:56;99598.88;;;8.17;51.34
82807;BME280;72563;44.816;20.484;2024-01-15T01:31:23;99593.03;;;7.93;51.64
82807;BME280;72563;44.816;20.484;2024-01-15T01:33:48;99588.06;;;8.12;51.26
82807;BME280;72563;44.816;20.484;2024-01-15T01:36:14;99593.53;;;8.04;51.36
82807;BME280;72563;44.816;20.484;2024-01-15T01:38:40;99567.25;;;8.03;51.38
82807;BME280;72563;44.816;20.484;2024-01-15T01:41:06;99588.25;;;8.16;51.23
82807;BME280;72563;44.816;20.484;2024-01-15T01:43:31;99580.03;;;8.24;51.02
82807;BME280;72563;44.816;20.484;2024-01-15T01:45:57;99583.88;;;8.15;51.61
82807;BME280;72563;44.816;20.484;2024-01-15T01:48:26;99583.44;;;8.30;50.98
82807;BME280;72563;44.816;20.484;2024-01-15T01:50:58;99581.03;;;8.28;50.99
82807;BME280;72563;44.816;20.484;2024-01-15T01:53:27;99575.66;;;8.23;51.55
82807;BME280;72563;44.816;20.484;2024-01-15T01:55:56;99572.41;;;8.13;51.48
82807;BME280;72563;44.816;20.484;2024-01-15T01:58:22;99568.19;;;7.81;52.10
82807;BME280;72563;44.816;20.484;2024-01-15T02:00:48;99573.00;;;7.84;52.05
82807;BME280;72563;44.816;20.484;2024-01-15T02:03:15;99546.78;;;7.92;52.02
82807;BME280;72563;44.816;20.484;2024-01-15T02:05:43;99538.53;;;7.83;51.75
82807;BME280;72563;44.816;20.484;2024-01-15T02:08:09;99532.69;;;7.68;52.25
82807;BME280;72563;44.816;20.484;2024-01-15T02:10:35;99530.72;;;7.60;52.74
82807;BME280;72563;44.816;20.484;2024-01-15T02:13:02;99538.44;;;7.40;53.44
82807;BME280;72563;44.816;20.484;2024-01-15T02:15:27;99528.47;;;7.53;52.87
82807;BME280;72563;44.816;20.484;2024-01-15T02:18:02;99530.69;;;7.42;53.74
82807;BME280;72563;44.816;20.484;2024-01-15T02:20:28;99512.06;;;7.53;52.92
82807;BME280;72563;44.816;20.484;2024-01-15T02:23:00;99523.50;;;7.55;53.45
82807;BME280;72563;44.816;20.484;2024-01-15T02:25:27;99521.94;;;7.80;52.66
82807;BME280;72563;44.816;20.484;2024-01-15T02:27:53;99499.00;;;7.59;53.01
82807;BME280;72563;44.816;20.484;2024-01-15T02:30:19;99504.50;;;7.59;53.22
82807;BME280;72563;44.816;20.484;2024-01-15T02:32:46;99503.56;;;7.80;53.12
82807;BME280;72563;44.816;20.484;2024-01-15T02:35:12;99504.03;;;7.82;52.54
82807;BME280;72563;44.816;20.484;2024-01-15T02:37:37;99487.09;;;7.72;53.04
82807;BME280;72563;44.816;20.484;2024-01-15T02:40:03;99487.78;;;7.77;52.95
82807;BME280;72563;44.816;20.484;2024-01-15T02:42:28;99475.47;;;7.49;53.56
82807;BME280;72563;44.816;20.484;2024-01-15T02:44:54;99482.91;;;7.66;53.25
82807;BME280;72563;44.816;20.484;2024-01-15T02:47:19;99466.63;;;7.61;53.24
82807;BME280;72563;44.816;20.484;2024-01-15T02:49:46;99477.13;;;7.76;52.96
82807;BME280;72563;44.816;20.484;2024-01-15T02:52:12;99471.78;;;7.62;53.18
82807;BME280;72563;44.816;20.484;2024-01-15T02:54:37;99469.56;;;7.73;53.31
82807;BME280;72563;44.816;20.484;2024-01-15T02:57:03;99470.53;;;7.77;52.86
82807;BME280;72563;44.816;20.484;2024-01-15T02:59:28;99454.56;;;7.79;53.12
82807;BME280;72563;44.816;20.484;2024-01-15T03:01:54;99450.34;;;7.55;53.32
82807;BME280;72563;44.816;20.484;2024-01-15T03:04:19;99451.50;;;7.54;53.46
82807;BME280;72563;44.816;20.484;2024-01-15T03:06:46;99453.44;;;7.71;53.32
82807;BME280;72563;44.816;20.484;2024-01-15T03:09:11;99454.25;;;7.80;52.81
82807;BME280;72563;44.816;20.484;2024-01-15T03:11:41;99437.31;;;7.61;53.25
82807;BME280;72563;44.816;20.484;2024-01-15T03:14:06;99444.25;;;7.59;53.57
82807;BME280;72563;44.816;20.484;2024-01-15T03:16:32;99438.09;;;7.62;53.38
82807;BME280;72563;44.816;20.484;2024-01-15T03:18:57;99426.06;;;7.71;53.12
82807;BME280;72563;44.816;20.484;2024-01-15T03:21:23;99410.72;;;7.70;53.02
82807;BME280;72563;44.816;20.484;2024-01-15T03:23:48;99411.22;;;7.72;53.07
82807;BME280;72563;44.816;20.484;2024-01-15T03:26:14;99407.66;;;7.72;52.81
82807;BME280;72563;44.816;20.484;2024-01-15T03:28:39;99405.59;;;7.86;52.73
82807;BME280;72563;44.816;20.484;2024-01-15T03:31:05;99405.59;;;7.86;52.80
82807;BME280;72563;44.816;20.484;2024-01-15T03:33:30;99397.69;;;7.84;52.90
82807;BME280;72563;44.816;20.484;2024-01-15T03:35:56;99393.50;;;7.87;52.67
82807;BME280;72563;44.816;20.484;2024-01-15T03:38:23;99383.34;;;7.96;52.41
82807;BME280;72563;44.816;20.484;2024-01-15T03:40:48;99382.53;;;7.87;52.94
82807;BME280;72563;44.816;20.484;2024-01-15T03:43:14;99384.94;;;7.97;52.75
82807;BME280;72563;44.816;20.484;2024-01-15T03:45:39;99378.34;;;7.81;53.08
82807;BME280;72563;44.816;20.484;2024-01-15T03:48:05;99369.31;;;7.80;52.74
82807;BME280;72563;44.816;20.484;2024-01-15T03:50:31;99367.53;;;7.93;52.48
82807;BME280;72563;44.816;20.484;2024-01-15T03:52:56;99365.13;;;7.74;52.75
82807;BME280;72563;44.816;20.484;2024-01-15T03:55:22;99361.44;;;7.79;53.02
82807;BME280;72563;44.816;20.484;2024-01-15T03:57:47;99345.97;;;7.83;52.46
82807;BME280;72563;44.816;20.484;2024-01-15T04:00:14;99355.47;;;7.68;53.08
82807;BME280;72563;44.816;20.484;2024-01-15T04:02:43;99349.84;;;7.73;52.94
82807;BME280;72563;44.816;20.484;2024-01-15T04:05:09;99337.59;;;7.88;52.50
82807;BME280;72563;44.816;20.484;2024-01-15T04:07:34;99339.19;;;7.72;53.10
82807;BME280;72563;44.816;20.484;2024-01-15T04:10:00;99329.09;;;7.55;53.52
82807;BME280;72563;44.816;20.484;2024-01-15T04:12:25;99334.03;;;7.87;52.76
82807;BME280;72563;44.816;20.484;2024-01-15T04:14:51;99336.09;;;7.90;52.63
82807;BME280;72563;44.816;20.484;2024-01-15T04:17:16;99334.56;;;7.55;53.74
82807;BME280;72563;44.816;20.484;2024-01-15T04:19:46;99329.53;;;7.74;53.44
82807;BME280;72563;44.816;20.484;2024-01-15T04:22:13;99319.19;;;7.88;52.76
82807;BME280;72563;44.816;20.484;2024-01-15T04:24:39;99331.28;;;7.87;52.84
82807;BME280;72563;44.816;20.484;2024-01-15T04:27:05;99319.03;;;7.85;52.83
82807;BME280;72563;44.816;20.484;2024-01-15T04:29:30;99331.28;;;7.96;52.70
82807;BME280;72563;44.816;20.484;2024-01-15T04:31:56;99318.94;;;8.19;51.67
82807;BME280;72563;44.816;20.484;2024-01-15T04:34:21;99309.78;;;8.15;51.74
82807;BME280;72563;44.816;20.484;2024-01-15T04:36:47;99311.59;;;8.02;52.03
82807;BME280;72563;44.816;20.484;2024-01-15T04:39:12;99291.53;;;8.19;52.02
82807;BME280;72563;44.816;20.484;2024-01-15T04:41:38;99297.03;;;8.27;51.53
82807;BME280;72563;44.816;20.484;2024-01-15T04:44:03;99296.91;;;8.07;51.96
82807;BME280;72563;44.816;20.484;2024-01-15T04:46:29;99292.22;;;8.16;52.10
82807;BME280;72563;44.816;20.484;2024-01-15T04:48:54;99292.72;;;8.09;51.90
82807;BME280;72563;44.816;20.484;2024-01-15T04:51:20;99291.09;;;8.08;51.93
82807;BME280;72563;44.816;20.484;2024-01-15T04:53:46;99292.09;;;8.04;52.09
82807;BME280;72563;44.816;20.484;2024-01-15T04:56:12;99291.06;;;8.17;52.10
82807;BME280;72563;44.816;20.484;2024-01-15T04:58:37;99289.03;;;8.05;52.28
82807;BME280;72563;44.816;20.484;2024-01-15T05:01:03;99283.28;;;8.36;51.10
82807;BME280;72563;44.816;20.484;2024-01-15T05:03:29;99286.06;;;8.27;51.01
82807;BME280;72563;44.816;20.484;2024-01-15T05:05:55;99291.69;;;8.31;51.36
82807;BME280;72563;44.816;20.484;2024-01-15T05:08:20;99279.41;;;8.37;50.89
82807;BME280;72563;44.816;20.484;2024-01-15T05:10:47;99270.41;;;8.37;50.72
82807;BME280;72563;44.816;20.484;2024-01-15T05:13:13;99278.78;;;8.23;51.30
82807;BME280;72563;44.816;20.484;2024-01-15T05:15:39;99277.19;;;8.30;51.21
82807;BME280;72563;44.816;20.484;2024-01-15T05:18:04;99279.00;;;8.26;51.07
82807;BME280;72563;44.816;20.484;2024-01-15T05:20:30;99270.56;;;8.31;51.27
82807;BME280;72563;44.816;20.484;2024-01-15T05:22:56;99272.19;;;8.32;50.98
82807;BME280;72563;44.816;20.484;2024-01-15T05:25:21;99263.88;;;8.03;51.52
82807;BME280;72563;44.816;20.484;2024-01-15T05:27:48;99275.78;;;8.07;51.85
82807;BME280;72563;44.816;20.484;2024-01-15T05:30:13;99279.38;;;7.91;52.38
82807;BME280;72563;44.816;20.484;2024-01-15T05:32:39;99277.69;;;8.15;51.56
82807;BME280;72563;44.816;20.484;2024-01-15T05:35:05;99276.78;;;8.03;51.57
82807;BME280;72563;44.816;20.484;2024-01-15T05:37:30;99284.06;;;7.90;52.08
82807;BME280;72563;44.816;20.484;2024-01-15T05:39:56;99276.28;;;8.01;51.92
82807;BME280;72563;44.816;20.484;2024-01-15T05:42:21;99244.13;;;7.81;52.08
82807;BME280;72563;44.816;20.484;2024-01-15T05:44:47;99281.50;;;7.85;52.35
82807;BME280;72563;44.816;20.484;2024-01-15T05:47:12;99265.91;;;7.77;52.36
82807;BME280;72563;44.816;20.484;2024-01-15T05:49:38;99278.75;;;7.85;51.90
82807;BME280;72563;44.816;20.484;2024-01-15T05:52:04;99273.41;;;7.97;51.78
82807;BME280;72563;44.816;20.484;2024-01-15T05:54:29;99278.88;;;8.06;51.60
82807;BME280;72563;44.816;20.484;2024-01-15T05:56:55;99264.84;;;7.99;51.54
82807;BME280;72563;44.816;20.484;2024-01-15T05:59:20;99267.03;;;8.22;51.00
82807;BME280;72563;44.816;20.484;2024-01-15T06:01:46;99259.00;;;8.17;51.09
82807;BME280;72563;44.816;20.484;2024-01-15T06:04:12;99257.81;;;7.89;51.71
82807;BME280;72563;44.816;20.484;2024-01-15T06:06:37;99250.22;;;7.86;52.15
82807;BME280;72563;44.816;20.484;2024-01-15T06:09:03;99248.28;;;7.95;51.83
82807;BME280;72563;44.816;20.484;2024-01-15T06:11:32;99248.00;;;7.80;52.00
82807;BME280;72563;44.816;20.484;2024-01-15T06:13:58;99239.34;;;7.52;52.62
82807;BME280;72563;44.816;20.484;2024-01-15T06:16:25;99236.41;;;7.66;52.63
82807;BME280;72563;44.816;20.484;2024-01-15T06:18:51;99235.47;;;7.62;52.32
82807;BME280;72563;44.816;20.484;2024-01-15T06:21:17;99237.22;;;7.66;52.56
82807;BME280;72563;44.816;20.484;2024-01-15T06:23:42;99230.63;;;7.67;52.59
82807;BME280;72563;44.816;20.484;2024-01-15T06:26:08;99227.41;;;7.74;52.22
82807;BME280;72563;44.816;20.484;2024-01-15T06:28:33;99200.78;;;7.74;51.62
82807;BME280;72563;44.816;20.484;2024-01-15T06:30:59;99236.41;;;8.20;51.15
82807;BME280;72563;44.816;20.484;2024-01-15T06:33:24;99227.19;;;8.33;50.64
82807;BME280;72563;44.816;20.484;2024-01-15T06:35:50;99219.44;;;8.35;50.60
82807;BME280;72563;44.816;20.484;2024-01-15T06:38:16;99213.28;;;8.39;50.46
82807;BME280;72563;44.816;20.484;2024-01-15T06:40:42;99212.81;;;8.37;50.43
82807;BME280;72563;44.816;20.484;2024-01-15T06:43:12;99205.84;;;8.39;50.31
82807;BME280;72563;44.816;20.484;2024-01-15T06:45:38;99191.19;;;8.35;50.03
82807;BME280;72563;44.816;20.484;2024-01-15T06:48:04;99193.34;;;8.21;50.34
82807;BME280;72563;44.816;20.484;2024-01-15T06:50:29;99203.75;;;8.45;50.09
82807;BME280;72563;44.816;20.484;2024-01-15T06:52:55;99205.59;;;8.32;50.25
82807;BME280;72563;44.816;20.484;2024-01-15T06:55:20;99199.91;;;7.99;50.56
82807;BME280;72563;44.816;20.484;2024-01-15T06:57:46;99199.13;;;8.37;50.26
82807;BME280;72563;44.816;20.484;2024-01-15T07:00:12;99202.47;;;8.42;50.09
82807;BME280;72563;44.816;20.484;2024-01-15T07:02:38;99214.72;;;8.45;50.33
82807;BME280;72563;44.816;20.484;2024-01-15T07:05:03;99208.66;;;8.22;50.69
82807;BME280;72563;44.816;20.484;2024-01-15T07:07:31;99215.78;;;8.52;49.94
82807;BME280;72563;44.816;20.484;2024-01-15T07:09:56;99213.34;;;8.59;49.30
82807;BME280;72563;44.816;20.484;2024-01-15T07:12:22;99218.22;;;8.74;49.46
82807;BME280;72563;44.816;20.484;2024-01-15T07:14:48;99212.66;;;8.83;48.77
82807;BME280;72563;44.816;20.484;2024-01-15T07:17:14;99213.41;;;8.92;48.58
82807;BME280;72563;44.816;20.484;2024-01-15T07:19:39;99218.56;;;8.93;48.55
82807;BME280;72563;44.816;20.484;2024-01-15T07:22:05;99203.84;;;8.77;48.61
82807;BME280;72563;44.816;20.484;2024-01-15T07:24:30;99211.91;;;8.74;48.60
82807;BME280;72563;44.816;20.484;2024-01-15T07:26:56;99200.69;;;8.87;48.74
82807;BME280;72563;44.816;20.484;2024-01-15T07:29:21;99214.13;;;9.01;48.28
82807;BME280;72563;44.816;20.484;2024-01-15T07:31:51;99209.59;;;9.05;48.58
82807;BME280;72563;44.816;20.484;2024-01-15T07:34:17;99199.13;;;8.98;48.44
82807;BME280;72563;44.816;20.484;2024-01-15T07:36:46;99196.28;;;8.95;48.49
82807;BME280;72563;44.816;20.484;2024-01-15T07:39:12;99208.38;;;8.94;48.46
82807;BME280;72563;44.816;20.484;2024-01-15T07:41:37;99209.72;;;8.88;48.95
82807;BME280;72563;44.816;20.484;2024-01-15T07:44:05;99187.69;;;8.96;48.87
82807;BME280;72563;44.816;20.484;2024-01-15T07:46:30;99201.00;;;8.86;48.79
82807;BME280;72563;44.816;20.484;2024-01-15T07:48:56;99203.09;;;8.89;49.10
82807;BME280;72563;44.816;20.484;2024-01-15T07:51:23;99214.25;;;9.04;48.90
82807;BME280;72563;44.816;20.484;2024-01-15T07:53:49;99196.88;;;9.00;48.63
82807;BME280;72563;44.816;20.484;2024-01-15T07:56:15;99209.41;;;9.10;48.86
82807;BME280;72563;44.816;20.484;2024-01-15T07:58:41;99200.75;;;9.20;48.40
82807;BME280;72563;44.816;20.484;2024-01-15T08:01:07;99209.34;;;9.31;48.07
82807;BME280;72563;44.816;20.484;2024-01-15T08:03:33;99205.16;;;9.12;48.21
82807;BME280;72563;44.816;20.484;2024-01-15T08:05:59;99193.84;;;9.14;48.69
82807;BME280;72563;44.816;20.484;2024-01-15T08:08:25;99211.91;;;9.36;48.16
82807;BME280;72563;44.816;20.484;2024-01-15T08:10:54;99215.38;;;9.45;48.08
82807;BME280;72563;44.816;20.484;2024-01-15T08:13:20;99205.00;;;9.30;48.07
82807;BME280;72563;44.816;20.484;2024-01-15T08:15:46;99207.44;;;9.43;48.06
82807;BME280;72563;44.816;20.484;2024-01-15T08:18:12;99205.78;;;9.51;47.86
82807;BME280;72563;44.816;20.484;2024-01-15T08:20:38;99199.00;;;9.48;47.82
82807;BME280;72563;44.816;20.484;2024-01-15T08:23:04;99204.63;;;9.52;47.72
82807;BME280;72563;44.816;20.484;2024-01-15T08:25:30;99196.66;;;9.26;48.20
82807;BME280;72563;44.816;20.484;2024-01-15T08:27:56;99204.16;;;9.50;47.65
82807;BME280;72563;44.816;20.484;2024-01-15T08:30:23;99211.94;;;9.48;48.00
82807;BME280;72563;44.816;20.484;2024-01-15T08:32:56;99213.09;;;9.47;47.69
82807;BME280;72563;44.816;20.484;2024-01-15T08:35:22;99185.97;;;9.57;47.69
82807;BME280;72563;44.816;20.484;2024-01-15T08:37:51;99192.84;;;9.63;47.55
82807;BME280;72563;44.816;20.484;2024-01-15T08:40:17;99179.13;;;9.75;47.31
82807;BME280;72563;44.816;20.484;2024-01-15T08:42:43;99185.47;;;10.00;46.44
82807;BME280;72563;44.816;20.484;2024-01-15T08:45:09;99191.69;;;10.09;46.75
82807;BME280;72563;44.816;20.484;2024-01-15T08:47:34;99174.94;;;10.02;46.55
82807;BME280;72563;44.816;20.484;2024-01-15T08:50:01;99187.47;;;10.36;45.98
82807;BME280;72563;44.816;20.484;2024-01-15T08:52:27;99194.66;;;10.28;46.33
82807;BME280;72563;44.816;20.484;2024-01-15T08:54:52;99191.75;;;16.91;58.45
82807;BME280;72563;44.816;20.484;2024-01-15T08:57:18;99174.66;;;19.88;46.04
82807;BME280;72563;44.816;20.484;2024-01-15T08:59:43;99187.25;;;21.43;38.67
82807;BME280;72563;44.816;20.484;2024-01-15T09:02:11;99186.41;;;21.76;36.00
82807;BME280;72563;44.816;20.484;2024-01-15T09:04:36;99178.88;;;22.26;31.90
82807;BME280;72563;44.816;20.484;2024-01-15T09:07:02;99180.25;;;22.65;32.47
82807;BME280;72563;44.816;20.484;2024-01-15T09:09:27;99156.97;;;22.68;29.92
82807;BME280;72563;44.816;20.484;2024-01-15T09:11:53;99164.22;;;22.88;29.77
82807;BME280;72563;44.816;20.484;2024-01-15T09:14:18;99174.00;;;23.00;28.20
82807;BME280;72563;44.816;20.484;2024-01-15T09:16:45;99181.88;;;23.08;27.62
82807;BME280;72563;44.816;20.484;2024-01-15T09:19:12;99186.53;;;22.72;27.51
82807;BME280;72563;44.816;20.484;2024-01-15T09:21:38;99194.59;;;18.01;30.50
82807;BME280;72563;44.816;20.484;2024-01-15T09:24:04;99203.75;;;15.34;35.91
82807;BME280;72563;44.816;20.484;2024-01-15T09:26:29;99205.25;;;13.17;39.84
82807;BME280;72563;44.816;20.484;2024-01-15T09:28:55;99209.13;;;12.97;40.67
82807;BME280;72563;44.816;20.484;2024-01-15T09:31:20;99204.09;;;13.02;40.40
82807;BME280;72563;44.816;20.484;2024-01-15T09:33:47;99200.56;;;13.40;39.12
82807;BME280;72563;44.816;20.484;2024-01-15T09:36:12;99184.44;;;13.23;39.06
82807;BME280;72563;44.816;20.484;2024-01-15T09:38:40;99189.09;;;13.19;39.36
82807;BME280;72563;44.816;20.484;2024-01-15T09:41:06;99181.41;;;11.93;42.36
82807;BME280;72563;44.816;20.484;2024-01-15T09:43:31;99173.78;;;12.36;41.81
82807;BME280;72563;44.816;20.484;2024-01-15T09:45:57;99169.44;;;12.35;41.68
82807;BME280;72563;44.816;20.484;2024-01-15T09:48:24;99183.41;;;12.58;41.29
82807;BME280;72563;44.816;20.484;2024-01-15T09:50:50;99190.88;;;12.58;41.58
82807;BME280;72563;44.816;20.484;2024-01-15T09:53:17;99183.09;;;12.63;41.20
82807;BME280;72563;44.816;20.484;2024-01-15T09:55:43;99180.50;;;12.70;41.13
82807;BME280;72563;44.816;20.484;2024-01-15T09:58:08;99175.00;;;12.55;41.03
82807;BME280;72563;44.816;20.484;2024-01-15T10:00:34;99173.53;;;12.41;41.58
82807;BME280;72563;44.816;20.484;2024-01-15T10:03:04;99174.34;;;11.80;44.08
82807;BME280;72563;44.816;20.484;2024-01-15T10:05:30;99165.09;;;11.72;45.37
82807;BME280;72563;44.816;20.484;2024-01-15T10:07:56;99162.03;;;11.46;46.73
82807;BME280;72563;44.816;20.484;2024-01-15T10:10:24;99163.44;;;11.55;46.52
82807;BME280;72563;44.816;20.484;2024-01-15T10:12:49;99168.03;;;11.36;47.64
82807;BME280;72563;44.816;20.484;2024-01-15T10:15:15;99164.63;;;10.99;48.43
82807;BME280;72563;44.816;20.484;2024-01-15T10:17:42;99154.06;;;11.29;48.54
82807;BME280;72563;44.816;20.484;2024-01-15T10:20:11;99163.44;;;11.12;48.69
82807;BME280;72563;44.816;20.484;2024-01-15T10:22:41;99161.19;;;11.30;49.31
82807;BME280;72563;44.816;20.484;2024-01-15T10:25:12;99137.09;;;11.27;49.14
82807;BME280;72563;44.816;20.484;2024-01-15T10:27:39;99151.81;;;11.62;48.98
82807;BME280;72563;44.816;20.484;2024-01-15T10:30:06;99155.81;;;11.64;49.03
82807;BME280;72563;44.816;20.484;2024-01-15T10:32:32;99148.03;;;11.67;49.11
82807;BME280;72563;44.816;20.484;2024-01-15T10:34:57;99143.56;;;11.19;49.54
82807;BME280;72563;44.816;20.484;2024-01-15T10:37:24;99127.63;;;11.12;49.37
82807;BME280;72563;44.816;20.484;2024-01-15T10:39:50;99139.56;;;10.89;50.03
82807;BME280;72563;44.816;20.484;2024-01-15T10:42:16;99134.09;;;10.76;51.37
82807;BME280;72563;44.816;20.484;2024-01-15T10:44:44;99129.78;;;10.51;50.93
82807;BME280;72563;44.816;20.484;2024-01-15T10:47:12;99131.00;;;10.66;50.40
82807;BME280;72563;44.816;20.484;2024-01-15T10:49:38;99124.47;;;11.26;49.47
82807;BME280;72563;44.816;20.484;2024-01-15T10:52:04;99121.00;;;11.29;49.25
82807;BME280;72563;44.816;20.484;2024-01-15T10:54:30;99117.44;;;10.85;49.71
82807;BME280;72563;44.816;20.484;2024-01-15T10:56:58;99121.13;;;11.05;49.67
82807;BME280;72563;44.816;20.484;2024-01-15T10:59:24;99112.44;;;10.75;50.37
82807;BME280;72563;44.816;20.484;2024-01-15T11:01:51;99112.13;;;11.35;49.26
82807;BME280;72563;44.816;20.484;2024-01-15T11:04:20;99104.38;;;11.69;48.51
82807;BME280;72563;44.816;20.484;2024-01-15T11:06:50;99122.91;;;12.18;47.51
82807;BME280;72563;44.816;20.484;2024-01-15T11:09:16;99115.25;;;12.27;46.80
82807;BME280;72563;44.816;20.484;2024-01-15T11:11:45;99110.19;;;12.48;46.67
82807;BME280;72563;44.816;20.484;2024-01-15T11:14:47;99110.78;;;12.38;47.17
82807;BME280;72563;44.816;20.484;2024-01-15T11:17:15;99100.34;;;12.67;46.70
82807;BME280;72563;44.816;20.484;2024-01-15T11:24:54;99100.00;;;12.87;46.61
82807;BME280;72563;44.816;20.484;2024-01-15T11:27:40;99111.69;;;13.00;45.43
82807;BME280;72563;44.816;20.484;2024-01-15T11:30:11;99104.94;;;12.78;45.28
82807;BME280;72563;44.816;20.484;2024-01-15T11:32:37;99112.84;;;12.26;47.08
82807;BME280;72563;44.816;20.484;2024-01-15T11:35:07;99100.72;;;12.65;46.54
82807;BME280;72563;44.816;20.484;2024-01-15T11:40:36;99098.47;;;12.36;46.56
82807;BME280;72563;44.816;20.484;2024-01-15T11:43:04;99092.97;;;12.36;46.60
82807;BME280;72563;44.816;20.484;2024-01-15T11:45:30;99100.69;;;12.11;47.73
82807;BME280;72563;44.816;20.484;2024-01-15T11:48:13;99096.06;;;12.00;47.94
82807;BME280;72563;44.816;20.484;2024-01-15T11:50:40;99096.13;;;11.56;49.13
82807;BME280;72563;44.816;20.484;2024-01-15T11:53:15;99090.16;;;11.67;48.42
82807;BME280;72563;44.816;20.484;2024-01-15T11:55:44;99080.91;;;11.75;48.72
82807;BME280;72563;44.816;20.484;2024-01-15T11:58:11;99073.84;;;11.93;48.05
82807;BME280;72563;44.816;20.484;2024-01-15T12:00:45;99068.56;;;12.19;48.13
82807;BME280;72563;44.816;20.484;2024-01-15T12:03:12;99064.16;;;11.83;46.98
82807;BME280;72563;44.816;20.484;2024-01-15T12:05:38;99070.94;;;12.20;47.70
82807;BME280;72563;44.816;20.484;2024-01-15T12:08:04;99075.50;;;11.35;48.03
82807;BME280;72563;44.816;20.484;2024-01-15T12:10:36;99075.50;;;11.50;48.60
82807;BME280;72563;44.816;20.484;2024-01-15T12:13:09;99069.09;;;11.15;50.13
82807;BME280;72563;44.816;20.484;2024-01-15T12:15:35;99049.13;;;11.34;49.35
82807;BME280;72563;44.816;20.484;2024-01-15T12:18:02;99062.53;;;11.51;49.92
82807;BME280;72563;44.816;20.484;2024-01-15T12:20:31;99059.19;;;11.42;49.54
82807;BME280;72563;44.816;20.484;2024-01-15T12:22:57;99051.97;;;11.37;49.88
82807;BME280;72563;44.816;20.484;2024-01-15T12:25:24;99052.50;;;11.27;50.01
82807;BME280;72563;44.816;20.484;2024-01-15T12:27:51;99049.66;;;11.24;50.09
82807;BME280;72563;44.816;20.484;2024-01-15T12:30:17;99028.69;;;10.76;52.02
82807;BME280;72563;44.816;20.484;2024-01-15T12:32:44;99017.44;;;10.81;51.84
82807;BME280;72563;44.816;20.484;2024-01-15T12:35:10;99035.84;;;10.93;52.27
82807;BME280;72563;44.816;20.484;2024-01-15T12:37:42;99022.81;;;10.34;53.63
82807;BME280;72563;44.816;20.484;2024-01-15T12:40:09;99016.44;;;9.82;55.36
82807;BME280;72563;44.816;20.484;2024-01-15T12:42:41;99015.16;;;10.16;54.43
82807;BME280;72563;44.816;20.484;2024-01-15T12:45:08;99020.81;;;10.35;54.33
82807;BME280;72563;44.816;20.484;2024-01-15T12:47:34;99009.66;;;10.71;53.52
82807;BME280;72563;44.816;20.484;2024-01-15T12:50:01;99013.47;;;10.39;54.29
82807;BME280;72563;44.816;20.484;2024-01-15T12:52:27;99009.72;;;10.31;54.89
82807;BME280;72563;44.816;20.484;2024-01-15T12:54:53;99011.34;;;10.60;54.22
82807;BME280;72563;44.816;20.484;2024-01-15T12:57:19;98996.47;;;10.76;55.48
82807;BME280;72563;44.816;20.484;2024-01-15T12:59:46;98997.22;;;11.20;53.20
82807;BME280;72563;44.816;20.484;2024-01-15T13:02:13;98994.72;;;11.00;51.98